Time;durP1;ratioP1;P1;durP2;ratioP2;P2;SDS_P1;SDS_P2;PMS_P1;PMS_P2;Temp;Humidity;BMP_temperature;BMP_pressure;BME280_temperature;BME280_humidity;BME280_pressure;Samples;Min_cycle;Max_cycle;Signal;HPM_P1;HPM_P2
2023/01/04 00:01:24;;;;;;;;;;;6.90;99.90;;;;;;4995328;28;19929;-77
2023/01/04 00:03:50;;;;;;;;;;;6.90;99.90;;;;;;4999730;28;19936;-77
2023/01/04 00:06:17;;;;;;;;;;;6.90;99.90;;;;;;4999729;28;20309;-77
2023/01/04 00:08:44;;;;;;;;;;;6.90;99.90;;;;;;4998430;28;19988;-76
2023/01/04 00:11:13;;;;;;;;;;;6.80;99.90;;;;;;4998237;28;19941;-76
2023/01/04 00:13:39;;;;;;;;;;;6.80;99.90;;;;;;5002377;28;19933;-76
2023/01/04 00:16:07;;;;;;;;;;;6.90;99.90;;;;;;4999468;28;20007;-77
2023/01/04 00:18:34;;;;;;;;;;;6.80;99.90;;;;;;4996153;28;19936;-77
2023/01/04 00:21:06;;;;;;;;;;;6.80;99.90;;;;;;4996010;28;19929;-77
2023/01/04 00:23:32;;;;;;;;;;;6.80;99.90;;;;;;4995755;28;20436;-77
2023/01/04 00:25:59;;;;;;;;;;;6.80;99.90;;;;;;4997236;28;19929;-76
2023/01/04 00:28:27;;;;;;;;;;;6.80;99.90;;;;;;4997434;28;19930;-77
2023/01/04 00:30:53;;;;;;;;;;;6.80;99.90;;;;;;5000203;28;19937;-77
2023/01/04 00:33:20;;;;;;;;;;;6.70;99.90;;;;;;4997083;28;20468;-77
2023/01/04 00:35:46;;;;;;;;;;;6.70;99.90;;;;;;5000795;28;19940;-77
2023/01/04 00:38:13;;;;;;;;;;;6.70;99.90;;;;;;4998508;28;19933;-77
2023/01/04 00:40:39;;;;;;;;;;;6.70;99.90;;;;;;4999393;28;20884;-77
2023/01/04 00:43:06;;;;;;;;;;;6.70;99.90;;;;;;4998913;28;19936;-77
2023/01/04 00:45:34;;;;;;;;;;;6.70;99.90;;;;;;4997636;28;20007;-77
2023/01/04 00:48:00;;;;;;;;;;;6.70;99.90;;;;;;4997640;28;19929;-77
2023/01/04 00:50:27;;;;;;;;;;;6.60;99.90;;;;;;4997059;28;20365;-77
2023/01/04 00:52:53;;;;;;;;;;;6.60;99.90;;;;;;4994212;28;20304;-77
2023/01/04 00:55:20;;;;;;;;;;;6.60;99.90;;;;;;4998395;28;20421;-77
2023/01/04 00:57:46;;;;;;;;;;;6.60;99.90;;;;;;4999752;28;19936;-77
2023/01/04 01:00:14;;;;;;;;;;;6.60;99.90;;;;;;4999577;28;19936;-77
2023/01/04 01:02:41;;;;;;;;;;;6.60;99.90;;;;;;4994072;28;20076;-77
2023/01/04 01:05:08;;;;;;;;;;;6.60;99.90;;;;;;5005547;28;19929;-77
2023/01/04 01:07:35;;;;;;;;;;;6.60;99.90;;;;;;4999392;28;19933;-77
2023/01/04 01:10:01;;;;;;;;;;;6.50;99.90;;;;;;4994489;28;19936;-77
2023/01/04 01:12:28;;;;;;;;;;;6.50;99.90;;;;;;4997334;28;20064;-77
2023/01/04 01:14:54;;;;;;;;;;;6.50;99.90;;;;;;4999596;28;19930;-77
2023/01/04 01:17:21;;;;;;;;;;;6.50;99.90;;;;;;4997644;28;19930;-76
2023/01/04 01:19:48;;;;;;;;;;;6.40;99.90;;;;;;4999876;28;19934;-77
2023/01/04 01:22:15;;;;;;;;;;;6.40;99.90;;;;;;5003494;28;20314;-77
2023/01/04 01:24:42;;;;;;;;;;;6.40;99.90;;;;;;5006518;28;19937;-77
2023/01/04 01:27:08;;;;;;;;;;;6.40;99.90;;;;;;5003744;28;19933;-77
2023/01/04 01:29:35;;;;;;;;;;;6.40;99.90;;;;;;5006276;28;19936;-77
2023/01/04 01:32:01;;;;;;;;;;;6.40;99.90;;;;;;4997685;28;19941;-77
2023/01/04 01:34:28;;;;;;;;;;;6.30;99.90;;;;;;5002454;28;19998;-77
2023/01/04 01:36:55;;;;;;;;;;;6.30;99.90;;;;;;5002538;28;19991;-77
2023/01/04 01:39:22;;;;;;;;;;;6.30;99.90;;;;;;4999932;28;19929;-76
2023/01/04 01:41:49;;;;;;;;;;;6.30;99.90;;;;;;5001891;28;19933;-77
2023/01/04 01:44:34;;;;;;;;;;;6.30;99.90;;;;;;5003582;28;19984;-77
2023/01/04 01:47:01;;;;;;;;;;;6.20;99.90;;;;;;5002516;28;19987;-77
2023/01/04 01:49:29;;;;;;;;;;;6.20;99.90;;;;;;5000983;28;19958;-77
2023/01/04 01:51:58;;;;;;;;;;;6.20;99.90;;;;;;5001680;28;19937;-77
2023/01/04 01:54:26;;;;;;;;;;;6.20;99.90;;;;;;5004087;28;20039;-77
2023/01/04 01:56:53;;;;;;;;;;;6.20;99.90;;;;;;5003789;28;19926;-76
2023/01/04 01:59:20;;;;;;;;;;;6.20;99.90;;;;;;5002821;28;19933;-77
2023/01/04 02:01:47;;;;;;;;;;;6.10;99.90;;;;;;5001889;28;19947;-77
2023/01/04 02:04:14;;;;;;;;;;;6.10;99.90;;;;;;5005778;28;19936;-77
2023/01/04 02:06:43;;;;;;;;;;;6.10;99.90;;;;;;5000030;28;19937;-76
2023/01/04 02:09:11;;;;;;;;;;;6.10;99.90;;;;;;5004144;28;20669;-77
2023/01/04 02:11:38;;;;;;;;;;;6.10;99.90;;;;;;5010657;28;19929;-77
2023/01/04 02:16:56;;;;;;;;;;;6.00;99.90;;;;;;5003785;28;19952;-77
2023/01/04 02:19:33;;;;;;;;;;;6.00;99.90;;;;;;5005042;28;19987;-76
2023/01/04 02:22:10;;;;;;;;;;;6.00;99.90;;;;;;5008455;28;19941;-77
2023/01/04 02:24:48;;;;;;;;;;;6.00;99.90;;;;;;5000510;28;19940;-76
2023/01/04 02:27:26;;;;;;;;;;;6.00;99.90;;;;;;5006348;28;19926;-77
2023/01/04 02:30:17;;;;;;;;;;;5.90;99.90;;;;;;5006100;28;19933;-77
2023/01/04 02:32:50;;;;;;;;;;;5.90;99.90;;;;;;5002070;28;19991;-77
2023/01/04 02:35:21;;;;;;;;;;;5.90;99.90;;;;;;5002230;28;19937;-76
2023/01/04 02:37:50;;;;;;;;;;;5.80;99.90;;;;;;4996951;28;19934;-77
2023/01/04 02:40:20;;;;;;;;;;;5.90;99.90;;;;;;4998874;28;20520;-77
2023/01/04 02:45:40;;;;;;;;;;;5.80;99.90;;;;;;4999498;28;19936;-77
2023/01/04 02:50:54;;;;;;;;;;;5.80;99.90;;;;;;4999716;28;20431;-77
2023/01/04 02:53:27;;;;;;;;;;;5.80;99.90;;;;;;4999249;28;19941;-76
2023/01/04 02:55:58;;;;;;;;;;;5.80;99.90;;;;;;4996508;28;20007;-77
2023/01/04 02:58:43;;;;;;;;;;;5.80;99.90;;;;;;4996096;28;19941;-76
2023/01/04 03:06:52;;;;;;;;;;;5.80;99.90;;;;;;4991737;28;19994;-77
2023/01/04 03:09:21;;;;;;;;;;;5.80;99.90;;;;;;4991021;28;19936;-77
2023/01/04 03:14:35;;;;;;;;;;;5.80;99.90;;;;;;4987130;28;19931;-76
2023/01/04 03:17:04;;;;;;;;;;;5.80;99.90;;;;;;4978750;28;19934;-76
2023/01/04 03:19:53;;;;;;;;;;;5.70;99.90;;;;;;4989349;28;19933;-77
2023/01/04 03:36:20;;;;;;;;;;;5.70;99.90;;;;;;5007322;28;19936;-77
2023/01/04 03:50:02;;;;;;;;;;;5.70;99.90;;;;;;4964546;28;19933;-78
2023/01/04 03:52:31;;;;;;;;;;;5.80;99.90;;;;;;4980278;28;19929;-79
2023/01/04 03:54:58;;;;;;;;;;;5.70;99.90;;;;;;5006025;28;19929;-79
2023/01/04 03:57:25;;;;;;;;;;;5.70;99.90;;;;;;5013316;28;19952;-78
2023/01/04 03:59:55;;;;;;;;;;;5.70;99.90;;;;;;5004893;28;20397;-79
2023/01/04 04:02:23;;;;;;;;;;;5.70;99.90;;;;;;4994828;28;19964;-79
2023/01/04 04:10:19;;;;;;;;;;;5.70;99.90;;;;;;5004577;28;20442;-79
2023/01/04 04:12:47;;;;;;;;;;;5.70;99.90;;;;;;5004888;28;19941;-78
2023/01/04 04:15:14;;;;;;;;;;;5.70;99.90;;;;;;5002229;28;19929;-79
2023/01/04 04:17:40;;;;;;;;;;;5.70;99.90;;;;;;4996840;28;19933;-79
2023/01/04 04:20:07;;;;;;;;;;;5.80;99.90;;;;;;5006059;28;19937;-78
2023/01/04 04:22:35;;;;;;;;;;;5.70;99.90;;;;;;5002663;28;19999;-79
2023/01/04 04:25:02;;;;;;;;;;;5.70;99.90;;;;;;5004292;28;19968;-78
2023/01/04 04:27:28;;;;;;;;;;;5.80;99.90;;;;;;5000096;28;20361;-78
2023/01/04 04:29:55;;;;;;;;;;;5.70;99.90;;;;;;5003800;28;19933;-79
2023/01/04 04:32:21;;;;;;;;;;;5.80;99.90;;;;;;4999874;28;19933;-78
2023/01/04 04:34:48;;;;;;;;;;;5.70;99.90;;;;;;5002494;28;19940;-79
2023/01/04 04:37:14;;;;;;;;;;;5.80;99.90;;;;;;5005853;28;19968;-79
2023/01/04 04:39:42;;;;;;;;;;;5.80;99.90;;;;;;5003969;28;19936;-79
2023/01/04 04:42:08;;;;;;;;;;;5.80;99.90;;;;;;5004945;28;19963;-78
2023/01/04 04:44:35;;;;;;;;;;;5.80;99.90;;;;;;5003192;28;20740;-79
2023/01/04 04:47:02;;;;;;;;;;;5.80;99.90;;;;;;5003305;28;19965;-78
2023/01/04 04:49:29;;;;;;;;;;;5.80;99.90;;;;;;5009705;28;19929;-79
2023/01/04 04:51:55;;;;;;;;;;;5.80;99.90;;;;;;5000129;28;19937;-78
2023/01/04 04:54:22;;;;;;;;;;;5.80;99.90;;;;;;5000958;28;19933;-78
2023/01/04 04:56:50;;;;;;;;;;;5.80;99.90;;;;;;5002196;28;20467;-79
2023/01/04 04:59:16;;;;;;;;;;;5.80;99.90;;;;;;5000922;28;19956;-79
2023/01/04 05:01:43;;;;;;;;;;;5.80;99.90;;;;;;5000982;28;20003;-79
2023/01/04 05:04:15;;;;;;;;;;;5.80;99.90;;;;;;5003919;28;19930;-78
2023/01/04 05:06:41;;;;;;;;;;;5.80;99.90;;;;;;5005381;28;19933;-78
2023/01/04 05:09:08;;;;;;;;;;;5.80;99.90;;;;;;5002144;28;19979;-78
2023/01/04 05:14:20;;;;;;;;;;;5.80;99.90;;;;;;5002581;28;20023;-79
2023/01/04 05:16:46;;;;;;;;;;;5.80;99.90;;;;;;4999475;28;19937;-79
2023/01/04 05:19:13;;;;;;;;;;;5.80;99.90;;;;;;5004470;28;19929;-79
2023/01/04 05:21:40;;;;;;;;;;;5.90;99.90;;;;;;4997980;28;20004;-79
2023/01/04 05:24:06;;;;;;;;;;;5.80;99.90;;;;;;5009303;28;20020;-79
2023/01/04 05:26:33;;;;;;;;;;;5.80;99.90;;;;;;5004098;28;19964;-79
2023/01/04 05:28:59;;;;;;;;;;;5.80;99.90;;;;;;5003300;28;19929;-79
2023/01/04 05:31:28;;;;;;;;;;;5.80;99.90;;;;;;5003340;28;21282;-79
2023/01/04 05:33:55;;;;;;;;;;;5.90;99.90;;;;;;5006486;28;20534;-78
2023/01/04 05:36:21;;;;;;;;;;;5.80;99.90;;;;;;5002216;28;20341;-79
2023/01/04 05:38:48;;;;;;;;;;;5.90;99.90;;;;;;5006559;28;19933;-79
2023/01/04 05:43:55;;;;;;;;;;;5.90;99.90;;;;;;5004821;28;19921;-78
2023/01/04 05:46:21;;;;;;;;;;;5.90;99.90;;;;;;5005284;28;19941;-78
2023/01/04 05:48:49;;;;;;;;;;;5.90;99.90;;;;;;5000083;28;19929;-78
2023/01/04 05:51:16;;;;;;;;;;;5.90;99.90;;;;;;5002151;28;20462;-79
2023/01/04 05:53:42;;;;;;;;;;;5.80;99.90;;;;;;5001392;28;19960;-79
2023/01/04 05:56:09;;;;;;;;;;;5.90;99.90;;;;;;5000386;28;19988;-79
2023/01/04 05:58:35;;;;;;;;;;;5.80;99.90;;;;;;5002577;28;19930;-79
2023/01/04 06:01:02;;;;;;;;;;;5.80;99.90;;;;;;4999084;28;19940;-79
2023/01/04 06:03:28;;;;;;;;;;;5.80;99.90;;;;;;4995530;28;19929;-80
2023/01/04 06:05:56;;;;;;;;;;;5.80;99.90;;;;;;5004343;28;20494;-79
2023/01/04 06:08:23;;;;;;;;;;;5.80;99.90;;;;;;4999008;28;19929;-79
2023/01/04 06:10:52;;;;;;;;;;;5.80;99.90;;;;;;5005314;28;19999;-79
2023/01/04 06:13:19;;;;;;;;;;;5.80;99.90;;;;;;5012636;28;19956;-79
2023/01/04 06:15:45;;;;;;;;;;;5.80;99.90;;;;;;5005015;28;20017;-79
2023/01/04 06:18:12;;;;;;;;;;;5.80;99.90;;;;;;5005565;28;20472;-79
2023/01/04 06:20:38;;;;;;;;;;;5.80;99.90;;;;;;5005335;28;19960;-79
2023/01/04 06:23:07;;;;;;;;;;;5.80;99.90;;;;;;5015207;28;19929;-79
2023/01/04 06:25:34;;;;;;;;;;;5.90;99.90;;;;;;5005340;28;20492;-79
2023/01/04 06:28:00;;;;;;;;;;;5.80;99.90;;;;;;5012473;28;19929;-79
2023/01/04 06:30:27;;;;;;;;;;;5.80;99.90;;;;;;5009086;28;19937;-80
2023/01/04 06:32:54;;;;;;;;;;;5.90;99.90;;;;;;5010582;28;19963;-78
2023/01/04 06:35:21;;;;;;;;;;;5.90;99.90;;;;;;5010705;28;20396;-79
2023/01/04 06:37:47;;;;;;;;;;;5.90;99.90;;;;;;5017488;28;19933;-79
2023/01/04 06:40:15;;;;;;;;;;;5.90;99.90;;;;;;5007038;28;19930;-79
2023/01/04 06:42:44;;;;;;;;;;;5.90;99.90;;;;;;5009174;28;19941;-79
2023/01/04 06:45:11;;;;;;;;;;;5.90;99.90;;;;;;5008082;28;20304;-80
2023/01/04 06:47:38;;;;;;;;;;;5.90;99.90;;;;;;5009134;28;19929;-79
2023/01/04 06:50:04;;;;;;;;;;;5.90;99.90;;;;;;5008763;28;19929;-78
2023/01/04 06:52:31;;;;;;;;;;;5.90;99.90;;;;;;5000280;28;20380;-79
2023/01/04 06:54:57;;;;;;;;;;;5.90;99.90;;;;;;5006524;28;20685;-79
2023/01/04 06:57:26;;;;;;;;;;;5.90;99.90;;;;;;5010592;28;19936;-79
2023/01/04 06:59:52;;;;;;;;;;;5.90;99.90;;;;;;5007855;28;19933;-79
2023/01/04 07:02:19;;;;;;;;;;;5.90;99.90;;;;;;5003238;28;19937;-78
2023/01/04 07:04:45;;;;;;;;;;;5.90;99.90;;;;;;5008908;28;20401;-79
2023/01/04 07:07:12;;;;;;;;;;;5.90;99.90;;;;;;5011882;28;19975;-79
2023/01/04 07:09:39;;;;;;;;;;;6.00;99.90;;;;;;5003161;28;19930;-79
2023/01/04 07:12:05;;;;;;;;;;;6.00;99.90;;;;;;5006263;28;19929;-79
2023/01/04 07:14:33;;;;;;;;;;;6.00;99.90;;;;;;5006541;28;19933;-79
2023/01/04 07:16:59;;;;;;;;;;;6.00;99.90;;;;;;5000421;28;19933;-79
2023/01/04 07:19:26;;;;;;;;;;;6.00;99.90;;;;;;5005514;28;19933;-80
2023/01/04 07:21:52;;;;;;;;;;;6.00;99.90;;;;;;5005336;28;20413;-78
2023/01/04 07:24:19;;;;;;;;;;;6.00;99.90;;;;;;5006066;28;20000;-79
2023/01/04 07:26:46;;;;;;;;;;;6.00;99.90;;;;;;4993968;28;19934;-78
2023/01/04 07:29:16;;;;;;;;;;;6.00;99.90;;;;;;5005614;28;20071;-79
2023/01/04 07:31:45;;;;;;;;;;;6.00;99.90;;;;;;5004813;28;19933;-80
2023/01/04 07:34:12;;;;;;;;;;;6.00;99.90;;;;;;5015123;28;19937;-79
2023/01/04 07:36:39;;;;;;;;;;;6.00;99.90;;;;;;5008981;28;19930;-79
2023/01/04 07:39:06;;;;;;;;;;;6.00;99.90;;;;;;5007696;28;19951;-79
2023/01/04 07:41:33;;;;;;;;;;;6.00;99.90;;;;;;5010682;28;20036;-79
2023/01/04 07:44:00;;;;;;;;;;;6.00;99.90;;;;;;5009397;28;20501;-79
2023/01/04 07:46:26;;;;;;;;;;;6.00;99.90;;;;;;5009455;28;19938;-78
2023/01/04 07:48:54;;;;;;;;;;;6.00;99.90;;;;;;5010294;28;19934;-79
2023/01/04 07:51:21;;;;;;;;;;;6.00;99.90;;;;;;5008923;28;19934;-79
2023/01/04 07:53:47;;;;;;;;;;;6.00;99.90;;;;;;5009643;28;19933;-79
2023/01/04 07:56:14;;;;;;;;;;;6.00;99.90;;;;;;5009507;28;19937;-79
2023/01/04 07:58:41;;;;;;;;;;;6.00;99.90;;;;;;5015081;28;19932;-78
2023/01/04 08:01:07;;;;;;;;;;;6.10;99.90;;;;;;5007366;28;19929;-79
2023/01/04 08:03:34;;;;;;;;;;;6.10;99.90;;;;;;5006152;28;19936;-79
2023/01/04 08:06:04;;;;;;;;;;;6.00;99.90;;;;;;5014334;28;19941;-79
2023/01/04 08:08:30;;;;;;;;;;;6.10;99.90;;;;;;5012366;28;19964;-78
2023/01/04 08:11:00;;;;;;;;;;;6.10;99.90;;;;;;5014408;28;20296;-79
2023/01/04 08:13:26;;;;;;;;;;;6.10;99.90;;;;;;5008996;28;19929;-79
2023/01/04 08:15:53;;;;;;;;;;;6.10;99.90;;;;;;5017069;28;19936;-78
2023/01/04 08:18:20;;;;;;;;;;;6.10;99.90;;;;;;5007974;28;19936;-79
2023/01/04 08:20:46;;;;;;;;;;;6.10;99.90;;;;;;5016012;28;19934;-78
2023/01/04 08:23:14;;;;;;;;;;;6.10;99.90;;;;;;5013529;28;19929;-79
2023/01/04 08:25:41;;;;;;;;;;;6.20;99.90;;;;;;5009171;28;19929;-79
2023/01/04 08:28:07;;;;;;;;;;;6.20;99.90;;;;;;5008468;28;19991;-79
2023/01/04 08:30:34;;;;;;;;;;;6.20;99.90;;;;;;5005005;28;19929;-80
2023/01/04 08:33:01;;;;;;;;;;;6.20;99.90;;;;;;5006369;28;20735;-79
2023/01/04 08:35:27;;;;;;;;;;;6.30;99.90;;;;;;5008900;28;20016;-80
2023/01/04 08:37:54;;;;;;;;;;;6.30;99.90;;;;;;5014701;28;19933;-78
2023/01/04 08:40:21;;;;;;;;;;;6.30;99.90;;;;;;5011626;28;19951;-79
2023/01/04 08:42:48;;;;;;;;;;;6.30;99.90;;;;;;5012644;28;19937;-79
2023/01/04 08:45:15;;;;;;;;;;;6.40;99.90;;;;;;5013050;28;20068;-79
2023/01/04 08:47:41;;;;;;;;;;;6.40;99.90;;;;;;5013168;28;19929;-79
2023/01/04 08:50:08;;;;;;;;;;;6.40;99.90;;;;;;5015758;28;19930;-79
2023/01/04 08:52:34;;;;;;;;;;;6.50;99.90;;;;;;5010340;28;19933;-78
2023/01/04 08:55:01;;;;;;;;;;;6.50;99.90;;;;;;5009783;28;19936;-79
2023/01/04 08:57:29;;;;;;;;;;;6.50;99.90;;;;;;5001348;28;19936;-79
2023/01/04 08:59:55;;;;;;;;;;;6.50;99.90;;;;;;5011395;28;19980;-78
2023/01/04 09:02:23;;;;;;;;;;;6.60;99.90;;;;;;5004378;28;20370;-79
2023/01/04 09:04:49;;;;;;;;;;;6.60;99.90;;;;;;5013064;28;20369;-79
2023/01/04 09:07:16;;;;;;;;;;;6.60;99.90;;;;;;5007176;28;19937;-78
2023/01/04 09:09:43;;;;;;;;;;;6.60;99.90;;;;;;5009944;28;19929;-79
2023/01/04 09:12:10;;;;;;;;;;;6.70;99.90;;;;;;5006142;28;20437;-79
2023/01/04 09:14:38;;;;;;;;;;;6.70;99.90;;;;;;5014962;28;19929;-80
2023/01/04 09:17:05;;;;;;;;;;;6.70;99.90;;;;;;5003524;28;20196;-80
2023/01/04 09:19:31;;;;;;;;;;;6.70;99.90;;;;;;5009103;28;19929;-79
2023/01/04 09:21:58;;;;;;;;;;;6.70;99.90;;;;;;5009184;28;19933;-79
2023/01/04 09:24:25;;;;;;;;;;;6.80;99.90;;;;;;5006703;28;19936;-80
2023/01/04 09:26:51;;;;;;;;;;;6.80;99.90;;;;;;5006088;28;20173;-79
2023/01/04 09:29:18;;;;;;;;;;;6.80;99.90;;;;;;5016440;28;19933;-80
2023/01/04 09:31:46;;;;;;;;;;;6.90;99.90;;;;;;5004806;28;19957;-80
2023/01/04 09:34:13;;;;;;;;;;;6.90;99.90;;;;;;5017331;28;19948;-79
2023/01/04 09:36:39;;;;;;;;;;;6.90;99.90;;;;;;5012651;28;19934;-78
2023/01/04 09:39:06;;;;;;;;;;;6.90;99.90;;;;;;5008604;28;19936;-79
2023/01/04 09:41:35;;;;;;;;;;;7.00;99.90;;;;;;5013421;28;20548;-79
2023/01/04 09:44:02;;;;;;;;;;;7.00;99.90;;;;;;5013193;28;20022;-79
2023/01/04 09:46:32;;;;;;;;;;;7.00;99.90;;;;;;5013918;28;19991;-79
2023/01/04 09:49:07;;;;;;;;;;;7.00;99.80;;;;;;5017775;28;20399;-78
2023/01/04 09:51:36;;;;;;;;;;;7.10;99.80;;;;;;5009191;28;19934;-78
2023/01/04 09:54:04;;;;;;;;;;;7.10;99.60;;;;;;5011997;28;19930;-77
2023/01/04 09:56:32;;;;;;;;;;;7.10;99.60;;;;;;5011100;28;20216;-78
2023/01/04 09:59:00;;;;;;;;;;;7.20;99.50;;;;;;5010449;28;19929;-78
2023/01/04 10:01:28;;;;;;;;;;;7.20;99.40;;;;;;5009499;28;19956;-78
2023/01/04 10:03:59;;;;;;;;;;;7.20;99.40;;;;;;5015977;28;19925;-78
2023/01/04 10:06:27;;;;;;;;;;;7.30;99.40;;;;;;5009227;28;19930;-77
2023/01/04 10:08:56;;;;;;;;;;;7.30;99.40;;;;;;5009872;28;19933;-78
2023/01/04 10:11:28;;;;;;;;;;;7.30;99.30;;;;;;5014721;28;19925;-78
2023/01/04 10:14:01;;;;;;;;;;;7.30;99.30;;;;;;5018964;28;19930;-77
2023/01/04 10:16:35;;;;;;;;;;;7.30;99.30;;;;;;5004555;28;19980;-78
2023/01/04 10:19:08;;;;;;;;;;;7.40;99.30;;;;;;5008570;28;19937;-77
2023/01/04 10:21:40;;;;;;;;;;;7.40;99.20;;;;;;5011298;28;19940;-79
2023/01/04 10:24:25;;;;;;;;;;;7.40;99.20;;;;;;5011695;28;19930;-78
2023/01/04 10:26:54;;;;;;;;;;;7.40;99.10;;;;;;5011499;28;19929;-79
2023/01/04 10:29:35;;;;;;;;;;;7.50;99.00;;;;;;5015129;28;19948;-78
2023/01/04 10:32:05;;;;;;;;;;;7.50;99.00;;;;;;5005061;28;19937;-77
2023/01/04 10:34:33;;;;;;;;;;;7.50;98.90;;;;;;5013546;28;19957;-78
2023/01/04 10:37:04;;;;;;;;;;;7.60;99.00;;;;;;5012491;28;19930;-78
2023/01/04 10:39:34;;;;;;;;;;;7.60;99.00;;;;;;5008778;28;19934;-78
2023/01/04 10:42:07;;;;;;;;;;;7.60;98.90;;;;;;5005948;28;20290;-78
2023/01/04 10:44:38;;;;;;;;;;;7.60;98.90;;;;;;5017648;28;19933;-77
2023/01/04 10:47:09;;;;;;;;;;;7.60;98.70;;;;;;5014728;28;19933;-79
2023/01/04 10:49:40;;;;;;;;;;;7.70;98.70;;;;;;5009657;28;19937;-78
2023/01/04 10:52:10;;;;;;;;;;;7.70;98.70;;;;;;5009772;28;19976;-77
2023/01/04 10:54:39;;;;;;;;;;;7.70;98.60;;;;;;5008851;28;19929;-77
2023/01/04 10:57:10;;;;;;;;;;;7.70;98.60;;;;;;5010109;28;20021;-78
2023/01/04 10:59:39;;;;;;;;;;;7.70;98.60;;;;;;5013517;28;19930;-78
2023/01/04 11:02:07;;;;;;;;;;;7.80;98.70;;;;;;5006710;28;20023;-78
2023/01/04 11:04:38;;;;;;;;;;;7.80;98.70;;;;;;5010153;28;20825;-78
2023/01/04 11:07:07;;;;;;;;;;;7.80;98.60;;;;;;5009056;28;19964;-78
2023/01/04 11:09:38;;;;;;;;;;;7.80;98.60;;;;;;5005298;28;19936;-78
2023/01/04 11:12:06;;;;;;;;;;;7.90;98.50;;;;;;5005621;28;19941;-77
2023/01/04 11:14:33;;;;;;;;;;;7.80;98.50;;;;;;5005733;28;20679;-77
2023/01/04 11:17:01;;;;;;;;;;;7.90;98.50;;;;;;5000782;28;19930;-77
2023/01/04 11:19:28;;;;;;;;;;;7.90;98.50;;;;;;5004583;28;19929;-77
2023/01/04 11:21:57;;;;;;;;;;;7.90;98.50;;;;;;5005713;28;19933;-77
2023/01/04 11:24:28;;;;;;;;;;;7.90;98.50;;;;;;5002607;28;20004;-77
2023/01/04 11:26:57;;;;;;;;;;;8.00;98.50;;;;;;5002662;28;19929;-78
2023/01/04 11:29:28;;;;;;;;;;;8.00;98.50;;;;;;5013685;28;19929;-78
2023/01/04 11:31:56;;;;;;;;;;;8.00;98.50;;;;;;5003515;28;19929;-78
2023/01/04 11:34:37;;;;;;;;;;;8.00;98.50;;;;;;5005659;28;20413;-78
2023/01/04 11:37:13;;;;;;;;;;;8.00;98.60;;;;;;5008291;28;19937;-78
2023/01/04 11:39:40;;;;;;;;;;;8.10;98.60;;;;;;5006249;28;19940;-78
2023/01/04 11:42:19;;;;;;;;;;;8.10;98.60;;;;;;5007469;28;19937;-79
2023/01/04 11:44:57;;;;;;;;;;;8.00;98.60;;;;;;5014326;28;20499;-79
2023/01/04 11:47:24;;;;;;;;;;;8.10;98.70;;;;;;5011243;28;19926;-77
2023/01/04 11:49:51;;;;;;;;;;;8.10;98.70;;;;;;5012999;28;19929;-78
2023/01/04 11:52:31;;;;;;;;;;;8.10;98.70;;;;;;5007963;28;19935;-77
2023/01/04 11:55:15;;;;;;;;;;;8.10;98.60;;;;;;5010509;28;19952;-78
2023/01/04 11:57:43;;;;;;;;;;;8.20;98.70;;;;;;5007965;28;19925;-79
2023/01/04 12:00:10;;;;;;;;;;;8.20;98.60;;;;;;5012597;28;19951;-80
2023/01/04 12:02:37;;;;;;;;;;;8.20;98.60;;;;;;5006679;28;20247;-79
2023/01/04 12:05:11;;;;;;;;;;;8.20;98.70;;;;;;5009230;28;19929;-80
2023/01/04 12:07:40;;;;;;;;;;;8.20;98.60;;;;;;5005416;28;19929;-79
2023/01/04 12:10:20;;;;;;;;;;;8.20;98.50;;;;;;5009107;28;19975;-78
2023/01/04 12:12:48;;;;;;;;;;;8.20;98.50;;;;;;5008508;28;20032;-79
2023/01/04 12:15:19;;;;;;;;;;;8.30;98.60;;;;;;5008823;28;20381;-79
2023/01/04 12:17:49;;;;;;;;;;;8.30;98.50;;;;;;5007063;28;19933;-79
2023/01/04 12:20:17;;;;;;;;;;;8.30;98.50;;;;;;5010413;28;19940;-79
2023/01/04 12:22:44;;;;;;;;;;;8.30;98.60;;;;;;5014880;28;20397;-79
2023/01/04 12:25:21;;;;;;;;;;;8.30;98.50;;;;;;5004994;28;19933;-79
2023/01/04 12:27:50;;;;;;;;;;;8.40;98.50;;;;;;5019299;28;19936;-80
2023/01/04 12:30:31;;;;;;;;;;;8.30;98.50;;;;;;5008899;28;20048;-80
2023/01/04 12:32:58;;;;;;;;;;;8.40;98.60;;;;;;5004267;28;19945;-79
2023/01/04 12:35:43;;;;;;;;;;;8.40;98.40;;;;;;5006717;28;19929;-79
2023/01/04 12:38:10;;;;;;;;;;;8.40;98.50;;;;;;5006087;28;19941;-79
2023/01/04 12:40:53;;;;;;;;;;;8.40;98.40;;;;;;5008463;28;19929;-79
2023/01/04 12:43:25;;;;;;;;;;;8.50;98.50;;;;;;5009827;28;20029;-80
2023/01/04 12:49:02;;;;;;;;;;;8.50;98.50;;;;;;5009259;28;20003;-80
2023/01/04 12:51:37;;;;;;;;;;;8.50;98.50;;;;;;5007351;28;20309;-79
2023/01/04 12:54:04;;;;;;;;;;;8.50;98.50;;;;;;5008717;28;19930;-79
2023/01/04 12:56:49;;;;;;;;;;;8.50;98.50;;;;;;5011391;28;19929;-79
2023/01/04 12:59:30;;;;;;;;;;;8.50;98.50;;;;;;5005079;28;19941;-78
2023/01/04 13:02:18;;;;;;;;;;;8.60;98.40;;;;;;5003555;28;19929;-80
2023/01/04 13:04:44;;;;;;;;;;;8.60;98.30;;;;;;5008872;28;19929;-79
2023/01/04 13:07:14;;;;;;;;;;;8.60;98.30;;;;;;5009936;28;19937;-80
2023/01/04 13:09:43;;;;;;;;;;;8.60;98.30;;;;;;5009742;28;19929;-79
2023/01/04 13:12:27;;;;;;;;;;;8.70;98.30;;;;;;5012205;28;19936;-79
2023/01/04 13:14:57;;;;;;;;;;;8.70;98.30;;;;;;5009747;28;19929;-80
2023/01/04 13:17:25;;;;;;;;;;;8.70;98.20;;;;;;5008266;28;20855;-79
2023/01/04 13:19:52;;;;;;;;;;;8.70;98.20;;;;;;5011115;28;20256;-78
2023/01/04 13:22:20;;;;;;;;;;;8.70;98.10;;;;;;5007251;28;19952;-79
2023/01/04 13:24:48;;;;;;;;;;;8.70;98.10;;;;;;5009219;28;19964;-79
2023/01/04 13:27:15;;;;;;;;;;;8.80;98.20;;;;;;5004856;28;19961;-80
2023/01/04 13:29:42;;;;;;;;;;;8.80;98.00;;;;;;5009796;28;19934;-79
2023/01/04 13:32:11;;;;;;;;;;;8.80;98.00;;;;;;5001638;28;19949;-80
2023/01/04 13:34:38;;;;;;;;;;;8.80;98.10;;;;;;5006404;28;19929;-78
2023/01/04 13:37:07;;;;;;;;;;;8.80;98.10;;;;;;5008569;28;20487;-80
2023/01/04 13:39:33;;;;;;;;;;;8.80;98.10;;;;;;5004113;28;20035;-80
2023/01/04 13:42:00;;;;;;;;;;;8.80;98.10;;;;;;5008216;28;20416;-78
2023/01/04 13:44:34;;;;;;;;;;;8.80;98.40;;;;;;5012855;28;20558;-80
2023/01/04 13:47:01;;;;;;;;;;;8.80;98.10;;;;;;4997881;28;19930;-80
2023/01/04 13:49:29;;;;;;;;;;;8.90;98.10;;;;;;5007400;28;19933;-79
2023/01/04 13:51:56;;;;;;;;;;;8.90;98.10;;;;;;5004723;28;19930;-79
2023/01/04 13:54:23;;;;;;;;;;;8.90;98.00;;;;;;5004836;28;20215;-79
2023/01/04 13:56:52;;;;;;;;;;;8.90;97.90;;;;;;5006186;28;19929;-80
2023/01/04 13:59:19;;;;;;;;;;;8.90;97.90;;;;;;5006220;28;19930;-79
2023/01/04 14:01:47;;;;;;;;;;;8.90;97.80;;;;;;5004136;28;19940;-76
2023/01/04 14:04:15;;;;;;;;;;;9.00;97.80;;;;;;5008217;28;19930;-79
2023/01/04 14:06:44;;;;;;;;;;;9.00;97.90;;;;;;5007838;28;20055;-79
2023/01/04 14:09:15;;;;;;;;;;;8.90;97.90;;;;;;5000262;28;19933;-79
2023/01/04 14:12:01;;;;;;;;;;;9.00;97.90;;;;;;5003174;28;19929;-79
2023/01/04 14:14:35;;;;;;;;;;;9.00;97.80;;;;;;5014538;28;19929;-79
2023/01/04 14:17:16;;;;;;;;;;;9.00;97.80;;;;;;4999870;28;19940;-79
2023/01/04 14:19:47;;;;;;;;;;;9.00;97.80;;;;;;5003725;28;19937;-79
2023/01/04 14:22:44;;;;;;;;;;;9.00;97.80;;;;;;5004521;28;19941;-79
2023/01/04 14:25:29;;;;;;;;;;;9.00;97.90;;;;;;5000290;28;19930;-79
2023/01/04 14:28:16;;;;;;;;;;;9.10;97.80;;;;;;5002118;28;19957;-79
2023/01/04 14:30:43;;;;;;;;;;;9.00;97.80;;;;;;5008890;28;20333;-79
2023/01/04 14:33:14;;;;;;;;;;;9.10;97.80;;;;;;5007890;28;19930;-80
2023/01/04 14:35:41;;;;;;;;;;;9.10;97.90;;;;;;5013591;28;19934;-78
2023/01/04 14:38:11;;;;;;;;;;;9.10;97.90;;;;;;5012902;28;19940;-78
2023/01/04 14:40:38;;;;;;;;;;;9.10;97.90;;;;;;5009599;28;19940;-79
2023/01/04 14:43:19;;;;;;;;;;;9.10;97.90;;;;;;5009174;28;20196;-79
2023/01/04 14:45:47;;;;;;;;;;;9.10;97.90;;;;;;5006695;28;19934;-79
2023/01/04 14:48:14;;;;;;;;;;;9.10;97.90;;;;;;5002299;28;19930;-79
2023/01/04 14:50:40;;;;;;;;;;;9.10;98.00;;;;;;5007605;28;19925;-79
2023/01/04 14:53:09;;;;;;;;;;;9.10;97.90;;;;;;5015249;28;19929;-79
2023/01/04 14:55:35;;;;;;;;;;;9.10;97.90;;;;;;5005743;28;19963;-79
2023/01/04 14:58:02;;;;;;;;;;;9.10;97.80;;;;;;5007374;28;19930;-79
2023/01/04 15:00:28;;;;;;;;;;;9.10;97.90;;;;;;5009319;28;19936;-78
2023/01/04 15:02:56;;;;;;;;;;;9.10;97.90;;;;;;5006474;28;19968;-78
2023/01/04 15:05:23;;;;;;;;;;;9.20;97.90;;;;;;5008679;28;20530;-79
2023/01/04 15:07:49;;;;;;;;;;;9.10;97.80;;;;;;5009685;28;19943;-80
2023/01/04 15:10:19;;;;;;;;;;;9.20;97.80;;;;;;5004402;28;19941;-78
2023/01/04 15:12:46;;;;;;;;;;;9.20;97.80;;;;;;5011706;28;20457;-78
2023/01/04 15:15:12;;;;;;;;;;;9.20;97.80;;;;;;5014880;28;19929;-79
2023/01/04 15:17:39;;;;;;;;;;;9.20;97.80;;;;;;5007451;28;20286;-79
2023/01/04 15:20:08;;;;;;;;;;;9.20;97.80;;;;;;5006984;28;20492;-79
2023/01/04 15:22:34;;;;;;;;;;;9.20;97.70;;;;;;5013958;28;19929;-80
2023/01/04 15:25:01;;;;;;;;;;;9.20;97.80;;;;;;5012484;28;19933;-79
2023/01/04 15:27:27;;;;;;;;;;;9.30;97.80;;;;;;5013970;28;19940;-80
2023/01/04 15:29:54;;;;;;;;;;;9.30;97.80;;;;;;5016416;28;19929;-80
2023/01/04 15:32:20;;;;;;;;;;;9.20;97.90;;;;;;5015599;28;19929;-79
2023/01/04 15:34:48;;;;;;;;;;;9.30;98.00;;;;;;5010978;28;19940;-79
2023/01/04 15:37:16;;;;;;;;;;;9.30;97.90;;;;;;5008895;28;20508;-80